• Join FlightAware (Why Join?)
  • Login
  • US Flag 
07:27PM EDT


 

Airport Tracker/Info


-or-


 

Live Flight TrackerFlight Track Log ✈ AWE1940 ✈ 09-May-2013 ✈ KIAH - KCLT

Flight Track Log - Related Links

Times and Time Zones

All times are in EDT time to prevent confusion due to time zone crossing. See the AWE1940 flight status page for this flight to view local times or setup timezone preferences in your user account.

Time Position Orientation Groundspeed Altitude Reporting Facility
EDT Latitude Longitude Course Direction KTS MPH feet Rate Location/Type
06:46PM 29.9761 -95.2961 90° East 180 207 900  Level Houston Center
06:47PM 29.9642 -95.2322 102° East 228 262 2,900 1,740 Climbing Houston Center
06:48PM 29.9600 -95.1958 98° East 211 243 3,700 1,140 Climbing Houston Center
06:48PM 29.9531 -95.1589 102° East 267 307 4,000 1,020 Climbing Houston Center
06:49PM 29.9834 -94.9291 90° East  Level FlightAware Approximate
06:49PM 29.9458 -95.1094 100° East 260 299 4,800  Level Houston Center
06:50PM 29.9834 -94.7943 90° East  Level FlightAware Approximate
06:50PM 29.9522 -95.0142 86° East 294 338 7,700  Level Houston Center
06:51PM 29.9833 -94.6596 90° East  Level FlightAware Approximate
06:51PM 29.9589 -94.9183 85° East 299 344 10,100  Level Houston Center
06:52PM 29.9656 -94.8067 86° East 344 396 11,200 1,440 Climbing Houston Center
06:53PM 29.9750 -94.6500 86° East 409 471 13,100 1,980 Climbing Houston Center
06:54PM 29.9839 -94.5139 86° East 424 488 15,300 2,460 Climbing Houston Center
06:55PM 29.9914 -94.3889 86° East 427 491 18,300 1,740 Climbing Houston Center
06:56PM 30.0019 -94.2586 85° East 413 475 19,000 300 Climbing Houston Center
06:57PM 30.0247 -94.0811 82° East 464 534 19,000 600 Level Houston Center
06:58PM 30.0431 -93.9322 82° East 470 541 20,300 1,440 Climbing Houston Center
07:00PM 30.0509 -93.7292 76° East  Level FlightAware Approximate
07:01PM 30.0981 -93.4706 76° East 475 547 25,000  Level Houston Center
07:02PM 30.1161 -93.3128 82° East 503 579 25,600 840 Climbing Houston Center
07:03PM 30.1353 -93.1500 82° East 517 595 26,800 660 Climbing Houston Center
07:04PM 30.1636 -92.9872 79° East 524 603 27,000  Climbing Houston Center
07:05PM 30.2019 -92.8236 75° East 530 610 26,900  Descending Houston Center
07:06PM 30.2950 -92.6525 58° Northeast 531 611 27,000  Climbing Houston Center
07:07PM 30.3761 -92.5117 56° Northeast 530 610 26,900  Descending Houston Center
07:08PM 30.4544 -92.3717 57° Northeast 523 602 27,000  Climbing Houston Center
07:09PM 30.5367 -92.2233 57° Northeast 525 604 27,000  Level Houston Center
07:10PM 30.6156 -92.0842 57° Northeast 521 600 27,000  Level Houston Center
07:11PM 30.6939 -91.9442 57° Northeast 520 598 27,000  Level Houston Center
07:13PM 30.7853 -91.7756 58° Northeast 518 596 27,000  Level Houston Center
07:14PM 30.8636 -91.6350 57° Northeast 521 600 27,000  Level Houston Center
07:15PM 30.9428 -91.4947 57° Northeast 521 600 27,000  Level Houston Center
07:16PM 31.0167 -91.3633 57° Northeast 523 602 27,000  Level Houston Center
07:17PM 31.1092 -91.1922 58° Northeast 521 600 27,000  Level Houston Center
07:18PM 31.1878 -91.0500 57° Northeast 521 600 27,000  Level Houston Center
07:19PM 31.2647 -90.9069 58° Northeast 520 598 27,000  Level Houston Center
07:20PM 31.3431 -90.7644 57° Northeast 520 598 27,000  Level Houston Center
07:21PM 31.4208 -90.6208 58° Northeast 520 598 27,000 -60 Level Houston Center
07:22PM 31.4975 -90.4783 58° Northeast 517 595 26,900 -60 Descending Houston Center
07:23PM 31.5886 -90.3069 58° Northeast 515 593 26,900  Level Houston Center
07:24PM 31.6656 -90.1644 58° Northeast 516 594 27,000  Climbing Houston Center
07:25PM 31.7319 -90.0375 58° Northeast 515 593 27,000  Level Memphis Center
07:26PM 31.8172 -89.8806 57° Northeast 515 593 27,000  Level Memphis Center
07:27PM 31.8917 -89.7408 58° Northeast 515 593 27,000  Level Memphis Center
07:28PM 31.9639 -89.5983 59° Northeast 515 593 27,000  Level Memphis Center
07:29PM 32.0422 -89.4556 57° Northeast 515 593 27,000  Level Memphis Center
07:30PM 32.1142 -89.3125 59° Northeast 515 593 27,000  Level Memphis Center
07:31PM 32.1881 -89.1692 59° Northeast 515 593 27,000  Level Memphis Center
07:32PM 32.2639 -89.0233 58° Northeast 515 593 27,000  Level Memphis Center
07:33PM 32.3394 -88.8844 57° Northeast 515 593 27,000  Level Memphis Center
07:34PM 32.4128 -88.7381 59° Northeast 509 586 27,000  Level Memphis Center
07:35PM 32.4797 -88.5917 62° Northeast 509 586 27,000  Level Memphis Center
07:36PM 32.5406 -88.4597 61° Northeast 514 592 27,000  Level Memphis Center
07:38PM 32.7108 -88.1022 60° Northeast 496 571 27,000  Level Atlanta Center
07:39PM 32.7694 -87.9667 63° Northeast 496 571 27,000  Level Atlanta Center
07:40PM 32.8322 -87.8286 62° Northeast 488 562 27,000  Level Atlanta Center
07:41PM 32.8972 -87.6828 62° Northeast 482 555 27,000  Level Atlanta Center
07:42PM 32.9617 -87.5419 61° Northeast 487 560 27,000  Level Atlanta Center
07:43PM 33.0242 -87.4033 62° Northeast 487 560 27,000  Level Atlanta Center
07:44PM 33.0886 -87.2569 62° Northeast 487 560 27,000  Level Atlanta Center
07:45PM 33.1342 -87.1075 70° East 482 555 27,000  Level Atlanta Center
07:46PM 33.1736 -86.9375 74° East 476 548 27,000  Level Atlanta Center
07:47PM 33.2128 -86.7800 73° East 481 554 27,000  Level Atlanta Center
07:48PM 33.2536 -86.6247 73° East 487 560 27,000  Level Atlanta Center
07:49PM 33.2925 -86.4669 74° East 487 560 27,000  Level Atlanta Center
07:50PM 33.3308 -86.3111 74° East 485 558 27,000  Level Atlanta Center
07:51PM 33.3669 -86.1506 75° East 485 558 27,000  Level Atlanta Center
07:52PM 33.4053 -85.9897 74° East 485 558 27,000  Level Atlanta Center
07:53PM 33.4453 -85.8314 73° East 492 566 27,000  Level Atlanta Center
07:54PM 33.4806 -85.6825 74° East 479 551 27,000  Level Atlanta Center
07:55PM 33.5161 -85.5264 75° East 472 543 27,000  Level Atlanta Center
07:56PM 33.5511 -85.3722 75° East 472 543 27,000  Level Atlanta Center
07:57PM 33.5883 -85.2133 74° East 483 556 27,000  Level Atlanta Center
07:58PM 33.6253 -85.0567 74° East 483 556 27,000  Level Atlanta Center
07:59PM 33.6597 -84.8972 75° East 491 565 27,000  Level Atlanta Center
08:00PM 33.6983 -84.7331 74° East 491 565 27,000  Level Atlanta Center
08:01PM 33.7347 -84.5758 74° East 491 565 27,000  Level Atlanta Center
08:02PM 33.7667 -84.4161 76° East 486 559 27,000  Level Atlanta Center
08:03PM 33.8067 -84.2564 73° East 486 559 27,000  Level Atlanta Center
08:04PM 33.8422 -84.0914 75° East 503 579 27,000  Level Atlanta Center
08:05PM 33.8778 -83.9286 75° East 503 579 27,000  Level Atlanta Center
08:06PM 33.9108 -83.7683 76° East 489 563 27,000  Level Atlanta Center
08:07PM 33.9458 -83.6056 75° East 489 563 27,000  Level Atlanta Center
08:08PM 33.9806 -83.4425 76° East 489 563 27,000  Level Atlanta Center
08:09PM 34.0172 -83.2794 75° East 489 563 27,000  Level Atlanta Center
08:10PM 34.0478 -83.1361 76° East 489 563 27,000  Level Atlanta Center
08:11PM 34.0817 -82.9678 76° East 495 570 27,000  Level Atlanta Center
08:12PM 34.1136 -82.8069 76° East 490 564 27,000  Level Atlanta Center
08:13PM 34.1517 -82.6506 74° East 490 564 27,000 -420 Level Atlanta Center
08:14PM 34.2292 -82.4986 58° Northeast 475 547 26,200 -900 Descending Atlanta Center
08:15PM 34.3025 -82.3642 57° Northeast 475 547 25,200 -1,020 Descending Atlanta Center
08:16PM 34.3714 -82.2267 59° Northeast 475 547 24,200 -1,680 Descending Atlanta Center
08:17PM 34.4406 -82.0944 58° Northeast 475 547 21,900 -2,640 Descending Atlanta Center
08:18PM 34.5092 -81.9642 57° Northeast 469 540 19,000 -2,760 Descending Atlanta Center
08:19PM 34.5758 -81.8389 57° Northeast 457 526 16,400 -2,760 Descending Atlanta Center
08:20PM 34.6083 -81.7775 57° Northeast 424 488 14,800 -2,700 Descending Atlanta Center
08:20PM 34.6325 -81.7314 57° Northeast 429 494 13,700 -1,980 Descending Atlanta Center
08:21PM 34.6908 -81.6186 58° Northeast 405 466 12,000 -960 Descending Atlanta Center
08:22PM 34.7556 -81.5156 53° Northeast 386 444 12,000 -300 Level Atlanta Center
08:23PM 34.8286 -81.4172 48° Northeast 379 436 11,400 -840 Descending Atlanta Center
08:24PM 34.9039 -81.3264 45° Northeast 374 430 10,300 -780 Descending Atlanta Center
08:25PM 34.9686 -81.2431 47° Northeast 372 428 10,000 -240 Descending Atlanta Center
08:26PM 35.0478 -81.1389 47° Northeast 367 422 9,900 -300 Descending Atlanta Center
08:27PM 35.1128 -81.0681 42° Northeast 298 343 9,400 -1,140 Descending Atlanta Center
08:28PM 35.1900 -81.0703 359° North 263 303 7,600 -1,740 Descending Atlanta Center
08:29PM 35.2694 -81.0753 357° North 271 312 5,900 -1,800 Descending Atlanta Center
08:30PM 35.3397 -81.0547 13° North 268 308 3,900 -1,860 Descending Atlanta Center